Time;durP1;ratioP1;P1;durP2;ratioP2;P2;SDS_P1;SDS_P2;PMS_P1;PMS_P2;Temp;Humidity;BMP_temperature;BMP_pressure;BME280_temperature;BME280_humidity;BME280_pressure;Samples;Min_cycle;Max_cycle;Signal;HPM_P1;HPM_P2
2023/06/18 00:00:45;;;;;;;21.98;15.13;;;;;;;14.35;100.00;94308.88;5123572;28;20251;-73
2023/06/18 00:03:12;;;;;;;20.50;14.23;;;;;;;14.28;100.00;94300.53;5122288;28;20205;-73
2023/06/18 00:05:38;;;;;;;21.60;14.20;;;;;;;14.30;100.00;94307.22;5104853;28;20726;-73
2023/06/18 00:08:06;;;;;;;22.15;14.95;;;;;;;14.27;100.00;94298.94;5101335;28;20198;-73
2023/06/18 00:10:33;;;;;;;20.20;14.18;;;;;;;14.28;100.00;94308.72;5094944;28;20245;-73
2023/06/18 00:13:00;;;;;;;22.60;14.90;;;;;;;14.22;100.00;94295.34;5122198;28;20197;-72
2023/06/18 00:15:27;;;;;;;21.63;15.10;;;;;;;14.22;100.00;94300.81;5116597;28;20258;-72
2023/06/18 00:17:53;;;;;;;20.88;15.75;;;;;;;14.21;100.00;94299.22;5117424;28;20229;-72
2023/06/18 00:20:20;;;;;;;24.70;16.10;;;;;;;14.19;100.00;94296.09;5123611;28;20235;-72
2023/06/18 00:22:48;;;;;;;23.60;16.88;;;;;;;14.23;100.00;94290.69;5123145;28;20200;-71
2023/06/18 00:25:16;;;;;;;23.23;14.73;;;;;;;14.24;100.00;94287.63;5115960;28;20232;-71
2023/06/18 00:27:43;;;;;;;21.10;13.65;;;;;;;14.26;100.00;94294.66;5115816;28;20942;-71
2023/06/18 00:30:10;;;;;;;22.55;16.00;;;;;;;14.24;100.00;94297.72;5122844;28;20233;-71
2023/06/18 00:32:37;;;;;;;20.50;14.95;;;;;;;14.20;100.00;94297.69;5113147;28;20249;-72
2023/06/18 00:35:05;;;;;;;24.23;15.10;;;;;;;14.24;100.00;94292.28;5112256;28;20239;-71
2023/06/18 00:37:34;;;;;;;27.55;16.65;;;;;;;14.20;100.00;94292.22;5114856;28;20540;-71
2023/06/18 00:40:00;;;;;;;23.67;15.90;;;;;;;14.23;100.00;94291.50;5108948;28;20232;-72
2023/06/18 00:42:29;;;;;;;24.17;16.73;;;;;;;14.24;100.00;94297.72;5109859;28;20245;-72
2023/06/18 00:44:57;;;;;;;26.83;17.58;;;;;;;14.24;100.00;94292.28;5109988;28;20201;-72
2023/06/18 00:47:24;;;;;;;23.45;16.50;;;;;;;14.28;100.00;94292.34;5112725;28;20217;-72
2023/06/18 00:49:51;;;;;;;24.92;16.65;;;;;;;14.31;100.00;94302.53;5113465;28;20920;-72
2023/06/18 00:52:23;;;;;;;22.60;15.93;;;;;;;14.22;100.00;94294.56;5117120;27;20201;-72
2023/06/18 00:54:50;;;;;;;26.08;17.10;;;;;;;14.23;100.00;94288.75;5122300;27;20250;-72
2023/06/18 00:57:21;;;;;;;28.45;19.27;;;;;;;14.20;100.00;94292.22;5127143;27;20197;-72
2023/06/18 00:59:51;;;;;;;24.65;18.20;;;;;;;14.27;100.00;94293.50;5121454;27;20286;-72
2023/06/18 01:02:23;;;;;;;24.95;17.33;;;;;;;14.26;100.00;94295.44;5112070;27;20199;-72
2023/06/18 01:04:53;;;;;;;24.42;17.23;;;;;;;14.23;100.00;94291.50;5121406;27;20720;-72
2023/06/18 01:07:20;;;;;;;25.20;17.52;;;;;;;14.25;100.00;94288.41;5120043;27;20213;-72
2023/06/18 01:09:53;;;;;;;25.65;18.17;;;;;;;14.22;100.00;94291.84;5107292;27;20319;-72
2023/06/18 01:12:20;;;;;;;31.60;18.42;;;;;;;14.24;100.00;94293.06;5109356;28;20552;-71
2023/06/18 01:14:50;;;;;;;25.80;17.35;;;;;;;14.20;100.00;94292.22;5111828;28;20201;-72
2023/06/18 01:17:20;;;;;;;24.48;15.65;;;;;;;14.20;100.00;94292.22;5099793;28;20218;-71
2023/06/18 01:19:51;;;;;;;25.33;17.20;;;;;;;14.18;100.00;94291.00;5112794;28;20198;-71
2023/06/18 01:22:27;;;;;;;25.48;18.02;;;;;;;14.17;100.00;94294.88;5111955;28;20285;-72
2023/06/18 01:24:57;;;;;;;29.20;16.20;;;;;;;14.17;100.00;94295.66;5113069;27;20197;-72
2023/06/18 01:27:27;;;;;;;25.75;17.55;;;;;;;14.17;100.00;94287.50;5116395;27;20293;-72
2023/06/18 01:29:55;;;;;;;29.95;18.90;;;;;;;14.19;100.00;94295.31;5109961;27;20307;-72
2023/06/18 01:32:24;;;;;;;27.85;17.40;;;;;;;14.14;100.00;94301.81;5118048;27;20194;-72
2023/06/18 01:34:57;;;;;;;29.83;19.45;;;;;;;14.19;100.00;94307.00;5115068;27;20203;-72
2023/06/18 01:37:36;;;;;;;30.63;20.00;;;;;;;14.18;100.00;94299.19;5118150;27;20192;-72
2023/06/18 01:40:16;;;;;;;26.08;17.80;;;;;;;14.16;100.00;94302.25;5104606;28;20268;-73
2023/06/18 01:42:49;;;;;;;30.00;19.05;;;;;;;14.19;100.00;94296.09;5113081;27;20711;-73
2023/06/18 01:45:23;;;;;;;31.83;19.17;;;;;;;14.20;100.00;94292.22;5112045;28;20715;-73
2023/06/18 01:47:55;;;;;;;32.22;20.98;;;;;;;14.22;100.00;94300.81;5111748;28;20832;-72
2023/06/18 01:50:25;;;;;;;26.50;16.70;;;;;;;14.23;100.00;94290.69;5111778;28;20220;-73
2023/06/18 01:52:52;;;;;;;28.63;19.27;;;;;;;14.17;100.00;94298.38;5110563;28;20244;-72
2023/06/18 01:55:20;;;;;;;28.23;18.75;;;;;;;14.20;100.00;94292.22;5111616;28;20713;-73
2023/06/18 01:57:47;;;;;;;28.25;16.83;;;;;;;14.22;100.00;94300.81;5118802;27;20253;-72
2023/06/18 02:00:15;;;;;;;29.80;19.88;;;;;;;14.22;100.00;94310.91;5130135;27;20196;-73
2023/06/18 02:02:42;;;;;;;31.52;20.08;;;;;;;14.20;100.00;94300.41;5111049;28;20713;-72
2023/06/18 02:05:10;;;;;;;28.63;18.70;;;;;;;14.13;100.00;94302.97;5111621;28;20194;-73
2023/06/18 02:07:37;;;;;;;28.27;19.38;;;;;;;14.13;100.00;94300.25;5111470;28;20198;-72
2023/06/18 02:10:04;;;;;;;28.38;19.98;;;;;;;14.16;100.00;94307.69;5114874;27;20301;-74
2023/06/18 02:12:31;;;;;;;30.80;20.65;;;;;;;14.17;100.00;94303.84;5114905;27;20267;-72
2023/06/18 02:14:58;;;;;;;26.90;19.15;;;;;;;14.17;100.00;94303.84;5118505;27;20194;-72
2023/06/18 02:17:26;;;;;;;28.88;19.77;;;;;;;14.23;100.00;94310.56;5123670;27;20259;-72
2023/06/18 02:19:53;;;;;;;29.88;20.60;;;;;;;14.29;100.00;94307.56;5112722;27;20201;-72
2023/06/18 02:22:22;;;;;;;29.10;20.13;;;;;;;14.31;100.00;94308.00;5125359;27;20200;-73
2023/06/18 02:24:49;;;;;;;29.50;21.15;;;;;;;14.21;100.00;94304.69;5125440;27;20193;-73
2023/06/18 02:27:16;;;;;;;30.65;19.75;;;;;;;14.22;100.00;94300.81;5114185;27;20201;-73
2023/06/18 02:29:43;;;;;;;28.60;19.17;;;;;;;14.22;100.00;94300.81;5107206;27;20244;-73
2023/06/18 02:32:09;;;;;;;34.40;19.65;;;;;;;14.25;100.00;94304.75;5111484;27;20201;-73
2023/06/18 02:34:37;;;;;;;28.27;19.90;;;;;;;14.28;100.00;94303.25;5099013;27;20206;-73
2023/06/18 02:37:06;;;;;;;29.00;19.65;;;;;;;14.26;100.00;94302.81;5116398;27;20793;-73
2023/06/18 02:39:35;;;;;;;32.50;20.00;;;;;;;14.32;100.00;94312.31;5122441;27;20262;-73
2023/06/18 02:42:01;;;;;;;31.25;20.52;;;;;;;14.33;100.00;94311.16;5128703;27;20220;-73
2023/06/18 02:44:31;;;;;;;31.08;21.38;;;;;;;14.29;100.00;94313.00;5113515;27;20243;-73
2023/06/18 02:46:58;;;;;;;34.53;21.35;;;;;;;14.32;100.00;94309.56;5110770;28;20850;-73
2023/06/18 02:49:25;;;;;;;28.85;18.65;;;;;;;14.30;100.00;94322.75;5110570;28;20189;-73
2023/06/18 02:51:54;;;;;;;30.48;20.02;;;;;;;14.33;100.00;94320.13;5112514;27;20201;-73
2023/06/18 02:54:21;;;;;;;29.70;20.23;;;;;;;14.32;100.00;94315.03;5120887;27;20201;-73
2023/06/18 02:56:49;;;;;;;31.40;20.73;;;;;;;14.36;100.00;94326.75;5120116;27;20196;-73
2023/06/18 02:59:16;;;;;;;30.67;20.05;;;;;;;14.40;100.00;94327.66;5110430;28;20706;-73
2023/06/18 03:01:44;;;;;;;30.95;19.70;;;;;;;14.40;100.00;94322.22;5110806;28;20204;-73
2023/06/18 03:04:11;;;;;;;30.45;19.85;;;;;;;14.40;100.00;94322.22;5117065;27;20204;-73
2023/06/18 03:06:38;;;;;;;26.52;18.63;;;;;;;14.41;100.00;94324.59;5125272;27;20249;-72
2023/06/18 03:09:05;;;;;;;31.90;19.55;;;;;;;14.46;100.00;94326.25;5111819;27;20721;-73
2023/06/18 03:11:31;;;;;;;29.60;19.30;;;;;;;14.44;100.00;94323.09;5115363;27;20221;-72
2023/06/18 03:14:00;;;;;;;29.70;18.75;;;;;;;14.49;100.00;94325.50;5125989;27;20197;-72
2023/06/18 03:16:26;;;;;;;28.55;18.92;;;;;;;14.47;100.00;94319.66;5101731;27;20248;-72
2023/06/18 03:18:53;;;;;;;30.05;19.73;;;;;;;14.47;100.00;94327.81;5116173;27;20205;-72
2023/06/18 03:21:20;;;;;;;28.75;18.52;;;;;;;14.51;100.00;94323.22;5119975;27;20391;-73
2023/06/18 03:23:47;;;;;;;31.02;18.58;;;;;;;14.45;100.00;94324.66;5128539;27;20193;-73
2023/06/18 03:26:15;;;;;;;29.83;20.25;;;;;;;14.44;100.00;94318.41;5115117;27;20202;-73
2023/06/18 03:28:42;;;;;;;31.40;18.02;;;;;;;14.49;100.00;94317.31;5110172;28;20197;-73
2023/06/18 03:31:10;;;;;;;31.00;19.83;;;;;;;14.53;100.00;94320.91;5110246;28;20231;-73
2023/06/18 03:33:37;;;;;;;29.02;18.73;;;;;;;14.58;100.00;94323.38;5100787;28;20230;-73
2023/06/18 03:36:05;;;;;;;29.42;19.65;;;;;;;14.61;100.00;94327.31;5106679;27;20676;-73
2023/06/18 03:38:32;;;;;;;29.92;19.33;;;;;;;14.59;100.00;94319.50;5115821;27;20726;-72
2023/06/18 03:40:59;;;;;;;29.73;18.35;;;;;;;14.68;100.00;94339.13;5122321;27;20273;-73
2023/06/18 03:43:26;;;;;;;23.48;15.73;;;;;;;14.69;100.00;94335.25;5120302;27;20229;-73
2023/06/18 03:45:53;;;;;;;31.70;20.30;;;;;;;14.72;100.00;94334.53;5112741;28;20299;-73
2023/06/18 03:48:21;;;;;;;28.17;19.08;;;;;;;14.77;100.00;94330.72;5125234;27;20197;-73
2023/06/18 03:50:48;;;;;;;29.02;20.08;;;;;;;14.76;100.00;94323.72;5124543;28;20221;-73
2023/06/18 03:53:14;;;;;;;29.65;18.40;;;;;;;14.85;100.00;94327.00;5110089;28;20288;-73
2023/06/18 03:55:42;;;;;;;29.05;20.52;;;;;;;14.84;100.00;94326.19;5109790;28;20297;-72
2023/06/18 03:58:09;;;;;;;30.75;18.30;;;;;;;14.89;100.00;94333.31;5109582;28;20190;-72
2023/06/18 04:00:35;;;;;;;28.70;18.90;;;;;;;14.90;100.00;94330.19;5109489;28;20205;-72
2023/06/18 04:03:02;;;;;;;29.10;20.58;;;;;;;15.00;100.00;94336.22;5109582;28;20714;-73
2023/06/18 04:05:30;;;;;;;28.85;19.00;;;;;;;15.02;100.00;94337.44;5109499;28;20212;-73
2023/06/18 04:07:57;;;;;;;29.80;19.65;;;;;;;15.02;100.00;94342.09;5109508;28;20271;-72
2023/06/18 04:10:24;;;;;;;27.48;18.58;;;;;;;15.02;100.00;94342.91;5099970;28;21008;-73
2023/06/18 04:12:50;;;;;;;31.17;20.33;;;;;;;15.07;100.00;94339.06;5119091;28;20288;-73
2023/06/18 04:15:17;;;;;;;25.80;18.70;;;;;;;15.09;100.00;94342.22;5123070;28;20257;-73
2023/06/18 04:17:44;;;;;;;23.70;16.80;;;;;;;15.12;100.00;94336.03;5110464;28;20618;-73
2023/06/18 04:20:12;;;;;;;24.83;18.52;;;;;;;15.16;100.00;94342.34;5111654;27;20684;-73
2023/06/18 04:22:40;;;;;;;29.40;18.52;;;;;;;15.31;100.00;94348.84;5116692;27;20717;-73
2023/06/18 04:25:08;;;;;;;29.25;18.25;;;;;;;15.31;100.00;94349.63;5120570;27;20316;-73
2023/06/18 04:27:35;;;;;;;27.98;18.45;;;;;;;15.45;100.00;94349.84;5121794;27;20276;-73
2023/06/18 04:30:02;;;;;;;28.10;18.80;;;;;;;15.46;100.00;94345.19;5113167;28;20664;-73
2023/06/18 04:32:28;;;;;;;26.20;18.02;;;;;;;15.62;100.00;94354.06;5113530;28;20203;-73
2023/06/18 04:34:55;;;;;;;23.98;17.40;;;;;;;15.82;100.00;94346.56;5115427;27;20612;-73
2023/06/18 04:37:22;;;;;;;24.63;16.58;;;;;;;15.86;100.00;94352.88;5118507;27;20732;-73
2023/06/18 04:39:50;;;;;;;26.48;18.77;;;;;;;15.83;100.00;94339.97;5126880;27;20212;-73
2023/06/18 04:42:17;;;;;;;22.83;16.90;;;;;;;15.79;100.00;94345.38;5106262;27;20238;-73
2023/06/18 04:44:43;;;;;;;24.77;17.40;;;;;;;15.74;100.00;94355.81;5113296;27;20193;-73
2023/06/18 04:47:10;;;;;;;22.17;16.52;;;;;;;15.82;100.00;94357.50;5121957;27;20664;-73
2023/06/18 04:49:37;;;;;;;23.10;17.10;;;;;;;15.93;100.00;94352.97;5131222;27;20240;-73
2023/06/18 04:52:04;;;;;;;25.15;17.92;;;;;;;16.09;100.00;94356.34;5119381;27;20233;-73
2023/06/18 04:54:31;;;;;;;24.80;17.67;;;;;;;16.02;100.00;94366.38;5123708;27;20208;-73
2023/06/18 04:56:59;;;;;;;23.55;17.90;;;;;;;15.94;100.00;94360.03;5126618;27;20657;-74
2023/06/18 04:59:26;;;;;;;23.30;20.70;;;;;;;15.86;100.00;94369.25;5113001;28;20194;-73
2023/06/18 05:01:52;;;;;;;25.10;16.02;;;;;;;15.80;100.00;94382.44;5112559;28;20645;-73
2023/06/18 05:04:19;;;;;;;25.10;16.23;;;;;;;15.89;100.00;94365.78;5112680;28;20205;-73
2023/06/18 05:06:46;;;;;;;21.52;14.80;;;;;;;15.94;100.00;94370.94;5112638;28;20259;-73
2023/06/18 05:09:13;;;;;;;19.80;14.32;;;;;;;15.99;100.00;94376.09;5115002;27;20608;-73
2023/06/18 05:11:40;;;;;;;20.67;15.23;;;;;;;15.96;100.00;94382.31;5116646;27;20229;-73
2023/06/18 05:14:09;;;;;;;20.95;13.57;;;;;;;15.99;100.00;94390.53;5114627;27;20340;-73
2023/06/18 05:16:35;;;;;;;20.25;13.75;;;;;;;15.86;100.00;94391.09;5129280;27;20225;-73
2023/06/18 05:19:02;;;;;;;24.75;16.48;;;;;;;15.79;100.00;94399.19;5112323;28;20645;-74
2023/06/18 05:21:29;;;;;;;25.38;20.85;;;;;;;15.82;100.00;94401.22;5112361;28;20300;-73
2023/06/18 05:23:56;;;;;;;23.98;18.45;;;;;;;15.78;100.00;94400.34;5112065;28;20285;-73
2023/06/18 05:26:23;;;;;;;19.83;14.70;;;;;;;15.83;100.00;94408.25;5125307;27;20208;-73
2023/06/18 05:28:50;;;;;;;24.08;15.65;;;;;;;15.72;100.00;94408.06;5112094;28;20198;-74
2023/06/18 05:31:18;;;;;;;25.13;16.45;;;;;;;15.67;100.00;94410.31;5111020;28;20222;-74
2023/06/18 05:33:45;;;;;;;22.17;16.00;;;;;;;15.71;100.00;94411.19;5112409;28;20266;-74
2023/06/18 05:36:11;;;;;;;23.13;15.15;;;;;;;15.68;100.00;94422.81;5126140;27;20651;-73
2023/06/18 05:38:38;;;;;;;23.52;16.48;;;;;;;15.66;100.00;94420.44;5111397;28;20736;-74
2023/06/18 05:41:05;;;;;;;20.52;14.65;;;;;;;15.62;100.00;94420.38;5111277;28;20202;-75
2023/06/18 05:43:32;;;;;;;23.35;16.33;;;;;;;15.65;100.00;94424.34;5113811;27;20218;-74
2023/06/18 05:45:58;;;;;;;22.63;15.73;;;;;;;15.66;100.00;94430.59;5112141;28;20198;-74
2023/06/18 05:48:27;;;;;;;24.30;17.17;;;;;;;15.69;100.00;94429.88;5112217;28;20204;-74
2023/06/18 05:50:54;;;;;;;22.83;15.93;;;;;;;15.86;100.00;94430.13;5112447;27;20641;-74
2023/06/18 05:53:20;;;;;;;24.63;16.63;;;;;;;15.95;100.00;94435.38;5107740;28;20205;-74
2023/06/18 05:55:47;;;;;;;23.55;15.98;;;;;;;15.95;100.00;94438.09;5124240;27;20297;-74
2023/06/18 05:58:14;;;;;;;23.08;15.65;;;;;;;16.01;100.00;94442.09;5129650;27;20205;-73
2023/06/18 06:00:41;;;;;;;22.92;17.38;;;;;;;16.15;100.00;94442.31;5113329;27;20205;-74
2023/06/18 06:03:08;;;;;;;21.23;15.35;;;;;;;16.28;100.00;94440.16;5117904;27;20190;-74
2023/06/18 06:05:36;;;;;;;22.50;15.63;;;;;;;16.19;100.00;94442.38;5110506;28;20206;-73
2023/06/18 06:08:03;;;;;;;20.88;15.45;;;;;;;16.22;100.00;94447.09;5111763;28;20227;-73
2023/06/18 06:10:30;;;;;;;25.88;15.52;;;;;;;16.22;100.00;94441.63;5101793;27;20739;-73
2023/06/18 06:12:57;;;;;;;21.17;15.07;;;;;;;16.20;100.00;94444.75;5119707;27;20668;-73
2023/06/18 06:15:24;;;;;;;25.90;15.82;;;;;;;16.43;100.00;94441.94;5106115;27;20194;-74
2023/06/18 06:17:51;;;;;;;19.40;14.73;;;;;;;16.32;100.00;94447.25;5110584;28;20229;-74
2023/06/18 06:20:18;;;;;;;20.90;14.68;;;;;;;16.49;100.00;94451.41;5105659;28;20546;-73
2023/06/18 06:22:46;;;;;;;23.10;14.43;;;;;;;16.52;100.00;94460.84;5101854;28;20617;-71
2023/06/18 06:25:12;;;;;;;20.10;14.88;;;;;;;16.65;100.00;94465.75;5117790;27;20200;-73
2023/06/18 06:27:41;;;;;;;18.15;14.38;;;;;;;16.88;100.00;94468.38;5111268;28;20198;-73
2023/06/18 06:30:09;;;;;;;19.80;14.85;;;;;;;17.08;100.00;94468.25;5109186;28;20205;-73
2023/06/18 06:32:36;;;;;;;20.13;17.63;;;;;;;17.00;100.00;94465.41;5106386;28;20225;-74
2023/06/18 06:35:03;;;;;;;19.30;14.05;;;;;;;17.20;100.00;94466.06;5110282;28;20217;-74
2023/06/18 06:37:32;;;;;;;21.65;18.52;;;;;;;17.53;100.00;94465.22;5096354;28;20495;-74
2023/06/18 06:40:00;;;;;;;21.83;16.35;;;;;;;17.34;100.00;94476.38;5096421;28;20664;-75
2023/06/18 06:42:27;;;;;;;18.67;14.13;;;;;;;17.47;99.85;94476.91;5095269;28;20238;-75
2023/06/18 06:44:53;;;;;;;19.17;13.95;;;;;;;17.66;100.00;94479.47;5109564;28;20606;-75
2023/06/18 06:47:20;;;;;;;18.67;13.95;;;;;;;17.70;100.00;94475.63;5094057;28;20342;-73
2023/06/18 06:49:47;;;;;;;17.58;13.30;;;;;;;18.02;98.03;94472.41;5097643;28;20200;-76
2023/06/18 06:52:14;;;;;;;18.90;14.10;;;;;;;17.96;96.48;94471.16;5108796;28;20486;-74
2023/06/18 06:54:40;;;;;;;16.00;12.95;;;;;;;18.01;95.92;94479.03;5108480;28;20201;-75
2023/06/18 06:57:08;;;;;;;16.48;12.75;;;;;;;17.93;95.79;94491.09;5105059;28;20194;-74
2023/06/18 06:59:35;;;;;;;15.27;12.43;;;;;;;18.22;96.39;94478.41;5101527;28;20491;-74
2023/06/18 07:02:02;;;;;;;16.92;12.88;;;;;;;18.28;94.94;94488.66;5101032;28;20255;-74
2023/06/18 07:04:29;;;;;;;16.77;11.60;;;;;;;18.19;94.41;94490.13;5102866;28;20189;-74
2023/06/18 07:06:56;;;;;;;17.35;15.30;;;;;;;18.29;94.62;94493.00;5104013;28;20202;-75
2023/06/18 07:09:22;;;;;;;17.33;12.30;;;;;;;18.44;94.02;94491.94;5099048;28;20198;-75
2023/06/18 07:11:49;;;;;;;18.10;15.55;;;;;;;18.17;94.24;94504.25;5098818;28;20826;-74
2023/06/18 07:14:17;;;;;;;17.08;15.27;;;;;;;17.94;95.41;94506.38;5099067;28;20194;-74
2023/06/18 07:16:44;;;;;;;16.02;13.88;;;;;;;17.65;96.71;94500.59;5099329;28;20209;-76
2023/06/18 07:19:11;;;;;;;17.92;12.00;;;;;;;17.85;96.48;94506.69;5099690;28;20197;-76
2023/06/18 07:21:37;;;;;;;19.13;15.55;;;;;;;17.94;96.88;94503.63;5101861;28;20254;-76
2023/06/18 07:24:05;;;;;;;17.38;14.80;;;;;;;18.03;95.41;94506.88;5099895;28;20200;-78
2023/06/18 07:26:32;;;;;;;18.83;11.73;;;;;;;18.01;94.62;94511.94;5102601;28;20201;-76
2023/06/18 07:28:58;;;;;;;16.10;11.70;;;;;;;18.07;96.25;94505.72;5099337;28;20213;-76
2023/06/18 07:31:26;;;;;;;17.77;14.77;;;;;;;17.89;95.08;94510.25;5109012;28;20594;-75
2023/06/18 07:33:53;;;;;;;18.33;13.10;;;;;;;17.92;95.70;94498.53;5107790;28;20198;-75
2023/06/18 07:36:20;;;;;;;17.13;15.05;;;;;;;17.95;94.64;94507.94;5109429;28;20202;-75
2023/06/18 07:38:48;;;;;;;15.77;11.70;;;;;;;17.63;94.70;94511.13;5104863;28;20220;-75
2023/06/18 07:41:15;;;;;;;19.08;10.50;;;;;;;17.46;94.37;94508.19;5109214;28;20626;-75
2023/06/18 07:43:42;;;;;;;15.80;11.23;;;;;;;17.56;95.27;94511.03;5107946;28;20284;-75
2023/06/18 07:46:08;;;;;;;16.75;11.50;;;;;;;17.63;95.77;94518.56;5107456;28;20587;-73
2023/06/18 07:48:37;;;;;;;14.70;11.30;;;;;;;17.85;95.22;94514.13;5109093;28;20194;-74
2023/06/18 07:51:04;;;;;;;17.27;12.32;;;;;;;17.87;95.13;94506.31;5112910;28;20201;-74
2023/06/18 07:53:32;;;;;;;16.77;10.77;;;;;;;17.91;93.49;94520.81;5107332;28;20673;-73
2023/06/18 07:55:59;;;;;;;19.52;11.13;;;;;;;18.07;92.77;94510.41;5113175;28;20295;-74
2023/06/18 07:58:25;;;;;;;13.77;10.70;;;;;;;18.24;93.60;94514.47;5103967;28;20380;-73
2023/06/18 08:00:52;;;;;;;17.25;11.73;;;;;;;18.32;94.12;94511.41;5107600;28;20205;-73
2023/06/18 08:03:19;;;;;;;18.38;11.48;;;;;;;18.48;92.88;94509.19;5108511;28;20256;-74
2023/06/18 08:05:47;;;;;;;14.60;11.05;;;;;;;18.46;92.67;94522.50;5103640;28;20258;-74
2023/06/18 08:08:14;;;;;;;17.13;11.88;;;;;;;18.38;93.20;94515.38;5107519;28;20208;-73
2023/06/18 08:10:41;;;;;;;18.05;11.52;;;;;;;18.40;91.60;94521.28;5115522;28;20245;-75
2023/06/18 08:13:08;;;;;;;16.50;10.68;;;;;;;18.32;92.06;94530.59;5101381;28;20680;-76
2023/06/18 08:15:34;;;;;;;15.98;11.68;;;;;;;18.48;92.20;94531.13;5088445;28;20233;-77
2023/06/18 08:18:01;;;;;;;16.45;13.15;;;;;;;18.31;92.84;94537.25;5088609;28;20690;-77
2023/06/18 08:20:28;;;;;;;15.95;13.68;;;;;;;18.13;94.76;94547.28;5088696;28;20217;-75
2023/06/18 08:22:56;;;;;;;18.48;14.18;;;;;;;17.79;96.11;94538.31;5103016;28;20205;-76
2023/06/18 08:25:23;;;;;;;14.90;11.77;;;;;;;17.89;96.70;94545.09;5108523;28;20224;-76
2023/06/18 08:27:50;;;;;;;15.93;11.05;;;;;;;17.95;95.10;94544.38;5108638;28;20247;-76
2023/06/18 08:30:16;;;;;;;16.52;11.45;;;;;;;18.06;94.79;94547.22;5108750;28;20206;-77
2023/06/18 08:32:43;;;;;;;14.60;10.63;;;;;;;18.28;93.25;94549.00;5108671;28;20301;-76
2023/06/18 08:35:10;;;;;;;15.43;13.82;;;;;;;18.58;91.93;94546.16;5107935;28;20257;-77
2023/06/18 08:37:37;;;;;;;14.88;12.98;;;;;;;18.51;89.13;94550.75;5121834;28;20204;-77
2023/06/18 08:40:08;;;;;;;11.75;8.50;;;;;;;18.48;89.61;94553.09;5096789;28;20293;-77
2023/06/18 08:42:37;;;;;;;13.25;10.43;;;;;;;18.61;89.78;94561.03;5108509;28;20316;-77
2023/06/18 08:45:05;;;;;;;19.30;11.95;;;;;;;18.71;90.33;94554.88;5108856;28;20254;-78
2023/06/18 08:47:33;;;;;;;15.85;10.55;;;;;;;18.92;87.30;94555.00;5108873;28;20570;-78
2023/06/18 08:50:00;;;;;;;12.65;9.80;;;;;;;19.00;85.23;94556.63;5108775;28;20258;-78
2023/06/18 08:52:30;;;;;;;14.93;9.85;;;;;;;19.35;85.53;94544.28;5108930;28;20229;-77
2023/06/18 08:55:01;;;;;;;14.68;10.40;;;;;;;19.08;85.47;94552.75;5108466;28;20320;-77
2023/06/18 08:57:33;;;;;;;14.07;10.30;;;;;;;19.09;85.08;94554.34;5108706;28;20206;-77
2023/06/18 09:00:01;;;;;;;13.55;10.02;;;;;;;19.39;84.80;94548.63;5108906;28;20182;-78
2023/06/18 09:02:28;;;;;;;16.15;12.45;;;;;;;19.83;83.62;94553.91;5108106;28;20267;-73
2023/06/18 09:04:55;;;;;;;12.75;9.68;;;;;;;19.67;83.33;94545.22;5107229;28;20239;-75
2023/06/18 09:07:24;;;;;;;11.13;8.55;;;;;;;19.54;83.46;94555.00;5110410;28;20300;-74
2023/06/18 09:09:51;;;;;;;14.88;9.27;;;;;;;19.51;83.38;94558.50;5110889;28;20668;-74
2023/06/18 09:12:18;;;;;;;11.57;8.70;;;;;;;19.97;83.00;94546.88;5111594;28;20647;-74
2023/06/18 09:14:47;;;;;;;11.98;9.05;;;;;;;20.17;82.07;94557.13;5123276;27;20200;-74
2023/06/18 09:17:14;;;;;;;9.05;5.35;;;;;;;20.01;82.31;94547.66;5090613;28;20210;-74
2023/06/18 09:19:41;;;;;;;12.68;9.85;;;;;;;20.06;82.33;94550.84;5090720;28;20206;-74
2023/06/18 09:22:15;;;;;;;12.43;11.23;;;;;;;20.16;82.54;94554.78;5099226;28;20725;-74
2023/06/18 09:24:42;;;;;;;11.90;8.85;;;;;;;19.81;82.61;94550.78;5110591;28;20197;-75
2023/06/18 09:27:09;;;;;;;11.75;10.30;;;;;;;19.55;84.07;94559.28;5119943;27;20257;-74
2023/06/18 09:29:40;;;;;;;12.23;9.93;;;;;;;19.38;84.15;94549.00;5097519;27;20210;-74
2023/06/18 09:32:10;;;;;;;11.55;8.73;;;;;;;19.75;83.12;94563.31;5100228;28;20236;-74
2023/06/18 09:34:37;;;;;;;12.45;7.72;;;;;;;19.60;82.37;94558.94;5111078;28;20205;-73
2023/06/18 09:37:05;;;;;;;9.88;7.43;;;;;;;19.60;83.07;94561.69;5110931;28;20210;-74
2023/06/18 09:39:35;;;;;;;13.30;8.10;;;;;;;19.61;82.46;94557.75;5110798;28;20292;-74
2023/06/18 09:42:07;;;;;;;12.20;8.77;;;;;;;19.75;82.69;94555.06;5110832;28;20333;-74
2023/06/18 09:44:34;;;;;;;10.57;8.32;;;;;;;19.81;82.98;94548.03;5110435;28;20284;-75
2023/06/18 09:47:03;;;;;;;11.32;7.68;;;;;;;19.55;82.21;94553.00;5111523;28;20278;-74
2023/06/18 09:49:31;;;;;;;12.80;10.52;;;;;;;19.80;81.39;94549.19;5111151;28;20515;-74
2023/06/18 09:51:58;;;;;;;10.07;8.05;;;;;;;19.94;81.24;94547.66;5110961;28;20704;-74
2023/06/18 09:54:39;;;;;;;14.25;8.80;;;;;;;19.91;80.88;94551.19;5111220;28;20301;-74
2023/06/18 09:57:07;;;;;;;10.85;7.68;;;;;;;19.72;81.75;94555.84;5111694;28;20206;-76
2023/06/18 09:59:34;;;;;;;12.15;9.20;;;;;;;19.72;82.06;94558.59;5102404;28;20248;-76
2023/06/18 10:02:01;;;;;;;9.23;7.78;;;;;;;19.87;82.60;94549.22;5106409;28;20644;-79
2023/06/18 10:04:28;;;;;;;10.05;7.55;;;;;;;19.98;79.36;94560.22;5110923;28;20205;-78
2023/06/18 10:06:59;;;;;;;10.52;8.90;;;;;;;19.80;79.61;94560.19;5124798;27;20197;-77
2023/06/18 10:09:32;;;;;;;12.73;7.95;;;;;;;19.94;79.73;94550.41;5111137;28;20237;-77
2023/06/18 10:12:01;;;;;;;10.02;7.13;;;;;;;20.24;79.56;94559.88;5111236;28;20208;-73
2023/06/18 10:14:29;;;;;;;9.43;8.32;;;;;;;19.78;78.56;94557.03;5110922;28;20209;-73
2023/06/18 10:17:03;;;;;;;9.57;7.60;;;;;;;19.85;79.88;94550.75;5110652;28;20781;-75
2023/06/18 10:19:34;;;;;;;11.27;8.43;;;;;;;20.27;80.12;94550.06;5110349;28;20404;-73
2023/06/18 10:22:04;;;;;;;9.55;7.38;;;;;;;20.63;77.74;94555.66;5110675;28;20201;-76
2023/06/18 10:24:37;;;;;;;11.63;7.03;;;;;;;20.82;75.85;94546.97;5111005;28;20626;-74
2023/06/18 10:27:06;;;;;;;8.65;7.57;;;;;;;20.98;75.30;94536.34;5111056;28;20598;-75
2023/06/18 10:29:33;;;;;;;9.50;8.18;;;;;;;21.31;74.94;94534.34;5111434;27;20209;-77
2023/06/18 10:32:02;;;;;;;8.93;6.53;;;;;;;21.72;74.75;94538.13;5122901;27;20206;-74
2023/06/18 10:34:29;;;;;;;8.45;6.30;;;;;;;21.67;73.93;94543.25;5124769;27;20235;-74
2023/06/18 10:36:57;;;;;;;12.63;7.25;;;;;;;21.21;74.77;94542.22;5119227;27;20524;-74
2023/06/18 10:39:26;;;;;;;6.20;5.57;;;;;;;20.81;76.16;94539.88;5127258;27;20203;-75
2023/06/18 10:41:53;;;;;;;9.77;8.15;;;;;;;20.63;77.25;94536.38;5089075;28;20778;-74
2023/06/18 10:44:33;;;;;;;9.48;8.20;;;;;;;20.46;77.65;94535.19;5093551;28;20314;-75
2023/06/18 10:47:18;;;;;;;9.35;8.38;;;;;;;20.68;77.29;94530.47;5109777;28;20250;-74
2023/06/18 10:50:16;;;;;;;9.68;6.90;;;;;;;20.58;77.89;94529.28;5096874;28;20304;-74
2023/06/18 10:52:44;;;;;;;10.43;7.07;;;;;;;21.07;75.29;94533.94;5117406;27;20237;-73
2023/06/18 10:55:14;;;;;;;9.45;8.55;;;;;;;21.19;75.26;94522.53;5089375;28;20716;-74
2023/06/18 10:57:50;;;;;;;9.30;7.65;;;;;;;21.61;75.33;94526.31;5109682;28;20218;-74
2023/06/18 11:00:19;;;;;;;10.13;7.90;;;;;;;21.52;74.27;94523.22;5095077;28;20202;-74
2023/06/18 11:02:49;;;;;;;8.40;6.35;;;;;;;21.15;73.95;94527.25;5089655;28;20895;-72
2023/06/18 11:05:39;;;;;;;8.32;6.85;;;;;;;21.14;75.36;94525.69;5090066;28;20668;-73
2023/06/18 11:08:07;;;;;;;7.35;6.55;;;;;;;21.27;75.14;94517.81;5089861;28;20289;-74
2023/06/18 11:10:36;;;;;;;7.97;5.72;;;;;;;21.37;73.69;94519.72;5088817;28;20206;-73
2023/06/18 11:13:04;;;;;;;8.95;7.18;;;;;;;21.34;74.59;94523.28;5089291;28;20226;-74
2023/06/18 11:15:31;;;;;;;10.98;7.90;;;;;;;21.54;73.59;94523.59;5088990;28;20230;-74
2023/06/18 11:18:01;;;;;;;10.02;7.53;;;;;;;21.61;74.11;94532.63;5101379;28;20314;-74